sensor_id;sensor_type;location;lat;lon;timestamp;temperature;humidity
53520;DHT22;39397;53.204;5.778;2023-07-30T00:01:53;16.10;99.90
53520;DHT22;39397;53.204;5.778;2023-07-30T00:04:18;16.10;99.90
53520;DHT22;39397;53.204;5.778;2023-07-30T00:06:44;16.20;99.90
53520;DHT22;39397;53.204;5.778;2023-07-30T00:09:09;16.10;99.90
53520;DHT22;39397;53.204;5.778;2023-07-30T00:11:35;16.00;99.90
53520;DHT22;39397;53.204;5.778;2023-07-30T00:14:01;16.00;99.90
53520;DHT22;39397;53.204;5.778;2023-07-30T00:16:26;16.50;99.90
53520;DHT22;39397;53.204;5.778;2023-07-30T00:18:52;16.00;99.90
53520;DHT22;39397;53.204;5.778;2023-07-30T00:21:18;16.00;99.90
53520;DHT22;39397;53.204;5.778;2023-07-30T00:23:43;15.90;99.90
53520;DHT22;39397;53.204;5.778;2023-07-30T00:26:09;16.00;99.90
53520;DHT22;39397;53.204;5.778;2023-07-30T00:28:34;16.10;99.90
53520;DHT22;39397;53.204;5.778;2023-07-30T00:31:00;16.00;99.90
53520;DHT22;39397;53.204;5.778;2023-07-30T00:33:25;16.00;99.90
53520;DHT22;39397;53.204;5.778;2023-07-30T00:35:51;16.00;99.90
53520;DHT22;39397;53.204;5.778;2023-07-30T00:38:18;16.10;99.90
53520;DHT22;39397;53.204;5.778;2023-07-30T00:40:43;16.10;99.90
53520;DHT22;39397;53.204;5.778;2023-07-30T00:43:09;14.10;99.90
53520;DHT22;39397;53.204;5.778;2023-07-30T00:45:35;15.90;99.90
53520;DHT22;39397;53.204;5.778;2023-07-30T00:48:01;16.00;99.90
53520;DHT22;39397;53.204;5.778;2023-07-30T00:50:27;16.20;99.90
53520;DHT22;39397;53.204;5.778;2023-07-30T00:52:52;16.00;99.90
53520;DHT22;39397;53.204;5.778;2023-07-30T00:55:18;16.10;99.90
53520;DHT22;39397;53.204;5.778;2023-07-30T00:57:44;16.30;99.90
53520;DHT22;39397;53.204;5.778;2023-07-30T01:00:10;16.20;99.90
53520;DHT22;39397;53.204;5.778;2023-07-30T01:02:36;16.30;99.90
53520;DHT22;39397;53.204;5.778;2023-07-30T01:05:02;16.40;99.90
53520;DHT22;39397;53.204;5.778;2023-07-30T01:07:29;16.30;99.90
53520;DHT22;39397;53.204;5.778;2023-07-30T01:09:55;16.40;99.90
53520;DHT22;39397;53.204;5.778;2023-07-30T01:12:21;16.40;99.90
53520;DHT22;39397;53.204;5.778;2023-07-30T01:14:47;16.40;99.90
53520;DHT22;39397;53.204;5.778;2023-07-30T01:17:13;16.30;99.90
53520;DHT22;39397;53.204;5.778;2023-07-30T01:19:39;16.00;99.90
53520;DHT22;39397;53.204;5.778;2023-07-30T01:22:05;16.60;99.90
53520;DHT22;39397;53.204;5.778;2023-07-30T01:24:30;16.60;99.90
53520;DHT22;39397;53.204;5.778;2023-07-30T01:27:05;16.60;99.90
53520;DHT22;39397;53.204;5.778;2023-07-30T01:29:40;16.70;99.90
53520;DHT22;39397;53.204;5.778;2023-07-30T01:32:07;16.60;99.90
53520;DHT22;39397;53.204;5.778;2023-07-30T01:34:34;16.80;99.90
53520;DHT22;39397;53.204;5.778;2023-07-30T01:37:00;16.70;99.90
53520;DHT22;39397;53.204;5.778;2023-07-30T01:39:26;16.60;99.90
53520;DHT22;39397;53.204;5.778;2023-07-30T01:41:55;16.80;99.90
53520;DHT22;39397;53.204;5.778;2023-07-30T01:44:20;16.70;99.90
53520;DHT22;39397;53.204;5.778;2023-07-30T01:46:46;16.80;99.90
53520;DHT22;39397;53.204;5.778;2023-07-30T01:49:12;16.70;99.90
53520;DHT22;39397;53.204;5.778;2023-07-30T01:51:37;16.70;99.90
53520;DHT22;39397;53.204;5.778;2023-07-30T01:54:03;16.80;99.90
53520;DHT22;39397;53.204;5.778;2023-07-30T01:56:28;16.70;99.90
53520;DHT22;39397;53.204;5.778;2023-07-30T01:58:54;16.70;99.90
53520;DHT22;39397;53.204;5.778;2023-07-30T02:01:20;16.80;99.90
53520;DHT22;39397;53.204;5.778;2023-07-30T02:03:45;16.80;99.90
53520;DHT22;39397;53.204;5.778;2023-07-30T02:06:11;16.70;99.90
53520;DHT22;39397;53.204;5.778;2023-07-30T02:08:37;16.70;99.90
53520;DHT22;39397;53.204;5.778;2023-07-30T02:11:03;16.80;99.90
53520;DHT22;39397;53.204;5.778;2023-07-30T02:13:28;16.70;99.90
53520;DHT22;39397;53.204;5.778;2023-07-30T02:15:54;16.80;99.90
53520;DHT22;39397;53.204;5.778;2023-07-30T02:18:19;16.70;99.90
53520;DHT22;39397;53.204;5.778;2023-07-30T02:20:45;16.80;99.90
53520;DHT22;39397;53.204;5.778;2023-07-30T02:23:11;16.70;99.90
53520;DHT22;39397;53.204;5.778;2023-07-30T02:25:37;16.70;99.90
53520;DHT22;39397;53.204;5.778;2023-07-30T02:28:03;16.70;99.90
53520;DHT22;39397;53.204;5.778;2023-07-30T02:30:28;16.60;99.90
53520;DHT22;39397;53.204;5.778;2023-07-30T02:32:54;16.60;99.90
53520;DHT22;39397;53.204;5.778;2023-07-30T02:35:19;16.60;99.90
53520;DHT22;39397;53.204;5.778;2023-07-30T02:37:45;16.60;99.90
53520;DHT22;39397;53.204;5.778;2023-07-30T02:40:11;16.50;99.90
53520;DHT22;39397;53.204;5.778;2023-07-30T02:42:37;16.60;99.90
53520;DHT22;39397;53.204;5.778;2023-07-30T02:45:03;16.60;99.90
53520;DHT22;39397;53.204;5.778;2023-07-30T02:47:28;16.50;99.90
53520;DHT22;39397;53.204;5.778;2023-07-30T02:49:54;16.60;99.90
53520;DHT22;39397;53.204;5.778;2023-07-30T02:52:19;17.10;99.90
53520;DHT22;39397;53.204;5.778;2023-07-30T02:54:45;16.60;99.90
53520;DHT22;39397;53.204;5.778;2023-07-30T02:57:11;16.60;99.90
53520;DHT22;39397;53.204;5.778;2023-07-30T02:59:37;16.60;99.90
53520;DHT22;39397;53.204;5.778;2023-07-30T03:02:03;16.60;99.90
53520;DHT22;39397;53.204;5.778;2023-07-30T03:04:30;16.50;99.90
53520;DHT22;39397;53.204;5.778;2023-07-30T03:06:56;16.50;99.90
53520;DHT22;39397;53.204;5.778;2023-07-30T03:09:22;15.30;99.90
53520;DHT22;39397;53.204;5.778;2023-07-30T03:11:49;16.50;99.90
53520;DHT22;39397;53.204;5.778;2023-07-30T03:14:14;15.90;99.90
53520;DHT22;39397;53.204;5.778;2023-07-30T03:16:40;16.20;99.90
53520;DHT22;39397;53.204;5.778;2023-07-30T03:19:06;16.30;99.90
53520;DHT22;39397;53.204;5.778;2023-07-30T03:21:31;16.40;99.90
53520;DHT22;39397;53.204;5.778;2023-07-30T03:23:57;16.40;99.90
53520;DHT22;39397;53.204;5.778;2023-07-30T03:26:22;16.30;99.90
53520;DHT22;39397;53.204;5.778;2023-07-30T03:28:48;16.30;99.90
53520;DHT22;39397;53.204;5.778;2023-07-30T03:31:14;16.30;99.90
53520;DHT22;39397;53.204;5.778;2023-07-30T03:33:39;14.80;99.90
53520;DHT22;39397;53.204;5.778;2023-07-30T03:36:09;16.10;99.90
53520;DHT22;39397;53.204;5.778;2023-07-30T03:38:35;16.30;99.90
53520;DHT22;39397;53.204;5.778;2023-07-30T03:41:01;16.20;99.90
53520;DHT22;39397;53.204;5.778;2023-07-30T03:43:26;16.20;99.90
53520;DHT22;39397;53.204;5.778;2023-07-30T03:45:52;16.20;99.90
53520;DHT22;39397;53.204;5.778;2023-07-30T03:48:17;16.10;99.90
53520;DHT22;39397;53.204;5.778;2023-07-30T03:50:43;16.30;99.90
53520;DHT22;39397;53.204;5.778;2023-07-30T03:53:08;16.30;99.90
53520;DHT22;39397;53.204;5.778;2023-07-30T03:55:34;16.20;99.90
53520;DHT22;39397;53.204;5.778;2023-07-30T03:58:00;16.70;99.90
53520;DHT22;39397;53.204;5.778;2023-07-30T04:00:25;16.40;99.90
53520;DHT22;39397;53.204;5.778;2023-07-30T04:02:51;16.40;99.90
53520;DHT22;39397;53.204;5.778;2023-07-30T04:05:16;16.40;99.90
53520;DHT22;39397;53.204;5.778;2023-07-30T04:07:42;16.30;99.90
53520;DHT22;39397;53.204;5.778;2023-07-30T04:10:08;16.50;99.90
53520;DHT22;39397;53.204;5.778;2023-07-30T04:12:33;16.40;99.90
53520;DHT22;39397;53.204;5.778;2023-07-30T04:14:59;16.50;99.90
53520;DHT22;39397;53.204;5.778;2023-07-30T04:17:24;16.30;99.90
53520;DHT22;39397;53.204;5.778;2023-07-30T04:19:50;16.40;99.90
53520;DHT22;39397;53.204;5.778;2023-07-30T04:22:16;16.20;99.90
53520;DHT22;39397;53.204;5.778;2023-07-30T04:24:41;16.40;99.90
53520;DHT22;39397;53.204;5.778;2023-07-30T04:27:07;16.30;99.90
53520;DHT22;39397;53.204;5.778;2023-07-30T04:29:32;16.40;99.90
53520;DHT22;39397;53.204;5.778;2023-07-30T04:31:58;16.40;99.90
53520;DHT22;39397;53.204;5.778;2023-07-30T04:34:24;16.50;99.90
53520;DHT22;39397;53.204;5.778;2023-07-30T04:36:49;16.60;99.90
53520;DHT22;39397;53.204;5.778;2023-07-30T04:39:15;15.70;99.90
53520;DHT22;39397;53.204;5.778;2023-07-30T04:41:40;17.10;99.90
53520;DHT22;39397;53.204;5.778;2023-07-30T04:44:06;16.70;99.90
53520;DHT22;39397;53.204;5.778;2023-07-30T04:46:31;16.50;99.90
53520;DHT22;39397;53.204;5.778;2023-07-30T04:48:58;16.60;99.90
53520;DHT22;39397;53.204;5.778;2023-07-30T04:51:24;16.70;99.90
53520;DHT22;39397;53.204;5.778;2023-07-30T04:53:49;16.70;99.90
53520;DHT22;39397;53.204;5.778;2023-07-30T04:56:15;16.70;99.90
53520;DHT22;39397;53.204;5.778;2023-07-30T04:58:41;16.70;99.90
53520;DHT22;39397;53.204;5.778;2023-07-30T05:01:06;15.00;99.90
53520;DHT22;39397;53.204;5.778;2023-07-30T05:03:32;17.00;99.90
53520;DHT22;39397;53.204;5.778;2023-07-30T05:05:57;16.80;99.90
53520;DHT22;39397;53.204;5.778;2023-07-30T05:08:23;17.00;99.90
53520;DHT22;39397;53.204;5.778;2023-07-30T05:10:48;17.10;99.90
53520;DHT22;39397;53.204;5.778;2023-07-30T05:13:14;17.10;99.90
53520;DHT22;39397;53.204;5.778;2023-07-30T05:15:40;17.10;99.90
53520;DHT22;39397;53.204;5.778;2023-07-30T05:18:05;17.10;99.90
53520;DHT22;39397;53.204;5.778;2023-07-30T05:20:31;17.10;99.90
53520;DHT22;39397;53.204;5.778;2023-07-30T05:22:56;17.10;99.90
53520;DHT22;39397;53.204;5.778;2023-07-30T05:25:22;16.00;99.90
53520;DHT22;39397;53.204;5.778;2023-07-30T05:27:48;17.20;99.90
53520;DHT22;39397;53.204;5.778;2023-07-30T05:30:13;17.20;99.90
53520;DHT22;39397;53.204;5.778;2023-07-30T05:32:39;17.20;99.90
53520;DHT22;39397;53.204;5.778;2023-07-30T05:35:05;17.20;99.90
53520;DHT22;39397;53.204;5.778;2023-07-30T05:37:30;17.30;99.90
53520;DHT22;39397;53.204;5.778;2023-07-30T05:39:56;17.20;99.90
53520;DHT22;39397;53.204;5.778;2023-07-30T05:42:22;17.30;99.90
53520;DHT22;39397;53.204;5.778;2023-07-30T05:44:47;17.30;99.90
53520;DHT22;39397;53.204;5.778;2023-07-30T05:47:13;17.30;99.90
53520;DHT22;39397;53.204;5.778;2023-07-30T05:49:39;17.40;99.90
53520;DHT22;39397;53.204;5.778;2023-07-30T05:52:04;17.40;99.90
53520;DHT22;39397;53.204;5.778;2023-07-30T05:54:30;17.40;99.90
53520;DHT22;39397;53.204;5.778;2023-07-30T05:56:56;17.30;99.90
53520;DHT22;39397;53.204;5.778;2023-07-30T05:59:21;17.40;99.90
53520;DHT22;39397;53.204;5.778;2023-07-30T06:01:47;17.50;99.90
53520;DHT22;39397;53.204;5.778;2023-07-30T06:04:12;17.50;99.90
53520;DHT22;39397;53.204;5.778;2023-07-30T06:06:38;17.60;99.90
53520;DHT22;39397;53.204;5.778;2023-07-30T06:09:04;17.50;99.90
53520;DHT22;39397;53.204;5.778;2023-07-30T06:11:30;17.60;99.90
53520;DHT22;39397;53.204;5.778;2023-07-30T06:13:55;17.50;99.90
53520;DHT22;39397;53.204;5.778;2023-07-30T06:16:21;17.70;99.90
53520;DHT22;39397;53.204;5.778;2023-07-30T06:18:46;17.50;99.90
53520;DHT22;39397;53.204;5.778;2023-07-30T06:21:12;17.80;99.90
53520;DHT22;39397;53.204;5.778;2023-07-30T06:23:38;17.90;99.90
53520;DHT22;39397;53.204;5.778;2023-07-30T06:26:03;17.90;99.90
53520;DHT22;39397;53.204;5.778;2023-07-30T06:28:29;18.20;99.90
53520;DHT22;39397;53.204;5.778;2023-07-30T06:30:54;18.30;99.90
53520;DHT22;39397;53.204;5.778;2023-07-30T06:33:20;18.20;99.90
53520;DHT22;39397;53.204;5.778;2023-07-30T06:35:45;18.40;99.90
53520;DHT22;39397;53.204;5.778;2023-07-30T06:38:11;18.30;99.90
53520;DHT22;39397;53.204;5.778;2023-07-30T06:40:36;18.40;99.90
53520;DHT22;39397;53.204;5.778;2023-07-30T06:43:02;18.60;99.90
53520;DHT22;39397;53.204;5.778;2023-07-30T06:45:28;18.70;99.90
53520;DHT22;39397;53.204;5.778;2023-07-30T06:47:53;18.90;99.90
53520;DHT22;39397;53.204;5.778;2023-07-30T06:50:19;18.90;99.90
53520;DHT22;39397;53.204;5.778;2023-07-30T06:52:44;18.90;99.90
53520;DHT22;39397;53.204;5.778;2023-07-30T06:55:10;18.80;99.90
53520;DHT22;39397;53.204;5.778;2023-07-30T06:57:35;18.90;99.90
53520;DHT22;39397;53.204;5.778;2023-07-30T07:00:01;18.80;99.90
53520;DHT22;39397;53.204;5.778;2023-07-30T07:02:27;19.00;99.90
53520;DHT22;39397;53.204;5.778;2023-07-30T07:04:53;19.00;99.90
53520;DHT22;39397;53.204;5.778;2023-07-30T07:07:19;19.10;99.90
53520;DHT22;39397;53.204;5.778;2023-07-30T07:09:45;19.10;99.90
53520;DHT22;39397;53.204;5.778;2023-07-30T07:12:11;19.30;99.90
53520;DHT22;39397;53.204;5.778;2023-07-30T07:14:37;19.10;99.90
53520;DHT22;39397;53.204;5.778;2023-07-30T07:17:02;19.10;99.90
53520;DHT22;39397;53.204;5.778;2023-07-30T07:19:28;18.90;99.90
53520;DHT22;39397;53.204;5.778;2023-07-30T07:21:54;18.90;99.90
53520;DHT22;39397;53.204;5.778;2023-07-30T07:24:19;18.90;99.90
53520;DHT22;39397;53.204;5.778;2023-07-30T07:26:45;18.90;99.90
53520;DHT22;39397;53.204;5.778;2023-07-30T07:29:10;18.80;99.90
53520;DHT22;39397;53.204;5.778;2023-07-30T07:31:36;19.00;99.90
53520;DHT22;39397;53.204;5.778;2023-07-30T07:34:02;19.10;99.90
53520;DHT22;39397;53.204;5.778;2023-07-30T07:36:27;19.00;99.90
53520;DHT22;39397;53.204;5.778;2023-07-30T07:38:53;19.00;99.90
53520;DHT22;39397;53.204;5.778;2023-07-30T07:41:18;19.10;99.90
53520;DHT22;39397;53.204;5.778;2023-07-30T07:43:45;19.00;99.90
53520;DHT22;39397;53.204;5.778;2023-07-30T07:46:11;19.10;99.90
53520;DHT22;39397;53.204;5.778;2023-07-30T07:48:40;19.10;99.90
53520;DHT22;39397;53.204;5.778;2023-07-30T07:51:06;19.20;99.90
53520;DHT22;39397;53.204;5.778;2023-07-30T07:53:32;19.30;99.90
53520;DHT22;39397;53.204;5.778;2023-07-30T07:55:57;19.30;99.90
53520;DHT22;39397;53.204;5.778;2023-07-30T07:58:23;19.30;99.90
53520;DHT22;39397;53.204;5.778;2023-07-30T08:00:49;19.30;99.90
53520;DHT22;39397;53.204;5.778;2023-07-30T08:03:14;19.30;99.90
53520;DHT22;39397;53.204;5.778;2023-07-30T08:05:40;19.10;99.90
53520;DHT22;39397;53.204;5.778;2023-07-30T08:08:05;19.10;99.90
53520;DHT22;39397;53.204;5.778;2023-07-30T08:10:31;19.10;99.90
53520;DHT22;39397;53.204;5.778;2023-07-30T08:12:57;19.00;99.90
53520;DHT22;39397;53.204;5.778;2023-07-30T08:15:22;18.90;99.90
53520;DHT22;39397;53.204;5.778;2023-07-30T08:17:48;18.90;99.90
53520;DHT22;39397;53.204;5.778;2023-07-30T08:20:14;19.00;99.90
53520;DHT22;39397;53.204;5.778;2023-07-30T08:22:39;18.80;99.90
53520;DHT22;39397;53.204;5.778;2023-07-30T08:25:05;18.80;99.90
53520;DHT22;39397;53.204;5.778;2023-07-30T08:27:30;18.70;99.90
53520;DHT22;39397;53.204;5.778;2023-07-30T08:29:56;18.70;99.90
53520;DHT22;39397;53.204;5.778;2023-07-30T08:32:21;18.60;99.90
53520;DHT22;39397;53.204;5.778;2023-07-30T08:34:47;18.30;99.90
53520;DHT22;39397;53.204;5.778;2023-07-30T08:37:13;18.00;99.90
53520;DHT22;39397;53.204;5.778;2023-07-30T08:39:38;17.70;99.90
53520;DHT22;39397;53.204;5.778;2023-07-30T08:42:04;17.60;99.90
53520;DHT22;39397;53.204;5.778;2023-07-30T08:44:29;17.50;99.90
53520;DHT22;39397;53.204;5.778;2023-07-30T08:46:55;17.60;99.90
53520;DHT22;39397;53.204;5.778;2023-07-30T08:49:20;17.70;99.90
53520;DHT22;39397;53.204;5.778;2023-07-30T08:51:46;18.00;99.90
53520;DHT22;39397;53.204;5.778;2023-07-30T08:54:13;18.10;99.90
53520;DHT22;39397;53.204;5.778;2023-07-30T08:56:39;18.30;99.90
53520;DHT22;39397;53.204;5.778;2023-07-30T08:59:05;18.50;99.90
53520;DHT22;39397;53.204;5.778;2023-07-30T09:01:32;18.70;99.90
53520;DHT22;39397;53.204;5.778;2023-07-30T09:04:00;18.50;99.90
53520;DHT22;39397;53.204;5.778;2023-07-30T09:06:26;18.50;99.90
53520;DHT22;39397;53.204;5.778;2023-07-30T09:08:51;18.60;99.90
53520;DHT22;39397;53.204;5.778;2023-07-30T09:11:17;18.50;99.90
53520;DHT22;39397;53.204;5.778;2023-07-30T09:13:43;18.60;99.90
53520;DHT22;39397;53.204;5.778;2023-07-30T09:16:12;18.50;99.90
53520;DHT22;39397;53.204;5.778;2023-07-30T09:18:42;18.40;99.90
53520;DHT22;39397;53.204;5.778;2023-07-30T09:21:09;19.10;99.90
53520;DHT22;39397;53.204;5.778;2023-07-30T09:23:39;18.80;99.90
53520;DHT22;39397;53.204;5.778;2023-07-30T09:26:04;19.00;99.90
53520;DHT22;39397;53.204;5.778;2023-07-30T09:28:30;19.30;99.90
53520;DHT22;39397;53.204;5.778;2023-07-30T09:30:59;19.60;99.90
53520;DHT22;39397;53.204;5.778;2023-07-30T09:33:25;19.80;99.90
53520;DHT22;39397;53.204;5.778;2023-07-30T09:35:51;20.10;99.90
53520;DHT22;39397;53.204;5.778;2023-07-30T09:38:18;20.10;99.90
53520;DHT22;39397;53.204;5.778;2023-07-30T09:40:45;19.90;99.90
53520;DHT22;39397;53.204;5.778;2023-07-30T09:43:14;19.80;99.90
53520;DHT22;39397;53.204;5.778;2023-07-30T09:45:43;20.00;99.90
53520;DHT22;39397;53.204;5.778;2023-07-30T09:48:09;20.10;99.90
53520;DHT22;39397;53.204;5.778;2023-07-30T09:50:35;20.20;99.90
53520;DHT22;39397;53.204;5.778;2023-07-30T09:53:01;19.90;99.90
53520;DHT22;39397;53.204;5.778;2023-07-30T09:55:27;19.60;99.90
53520;DHT22;39397;53.204;5.778;2023-07-30T09:57:52;19.30;99.90
53520;DHT22;39397;53.204;5.778;2023-07-30T10:00:18;19.20;99.90
53520;DHT22;39397;53.204;5.778;2023-07-30T10:02:45;19.30;99.90
53520;DHT22;39397;53.204;5.778;2023-07-30T10:05:15;19.20;99.90
53520;DHT22;39397;53.204;5.778;2023-07-30T10:07:42;19.30;99.90
53520;DHT22;39397;53.204;5.778;2023-07-30T10:10:09;19.40;99.90
53520;DHT22;39397;53.204;5.778;2023-07-30T10:12:36;19.00;99.90
53520;DHT22;39397;53.204;5.778;2023-07-30T10:15:02;19.70;99.90
53520;DHT22;39397;53.204;5.778;2023-07-30T10:17:27;20.00;99.90
53520;DHT22;39397;53.204;5.778;2023-07-30T10:19:56;20.10;99.90
53520;DHT22;39397;53.204;5.778;2023-07-30T10:22:22;20.20;99.90
53520;DHT22;39397;53.204;5.778;2023-07-30T10:27:26;20.40;99.90
53520;DHT22;39397;53.204;5.778;2023-07-30T10:38:12;20.20;99.90
53520;DHT22;39397;53.204;5.778;2023-07-30T10:40:39;20.30;99.90
53520;DHT22;39397;53.204;5.778;2023-07-30T10:43:13;20.30;99.90
53520;DHT22;39397;53.204;5.778;2023-07-30T10:45:47;20.50;99.90
53520;DHT22;39397;53.204;5.778;2023-07-30T10:48:13;20.80;99.90
53520;DHT22;39397;53.204;5.778;2023-07-30T10:50:39;20.90;99.90
53520;DHT22;39397;53.204;5.778;2023-07-30T10:53:07;21.20;99.90
53520;DHT22;39397;53.204;5.778;2023-07-30T10:55:33;21.30;99.90
53520;DHT22;39397;53.204;5.778;2023-07-30T10:57:59;19.70;99.90
53520;DHT22;39397;53.204;5.778;2023-07-30T11:00:25;21.50;99.90
53520;DHT22;39397;53.204;5.778;2023-07-30T11:02:54;21.60;99.90
53520;DHT22;39397;53.204;5.778;2023-07-30T11:05:19;21.60;99.90
53520;DHT22;39397;53.204;5.778;2023-07-30T11:07:51;21.60;99.90
53520;DHT22;39397;53.204;5.778;2023-07-30T11:10:17;21.40;99.90
53520;DHT22;39397;53.204;5.778;2023-07-30T11:12:42;21.60;99.90
53520;DHT22;39397;53.204;5.778;2023-07-30T11:15:08;21.30;99.90
53520;DHT22;39397;53.204;5.778;2023-07-30T11:17:35;21.10;99.90
53520;DHT22;39397;53.204;5.778;2023-07-30T11:20:00;21.60;99.90
53520;DHT22;39397;53.204;5.778;2023-07-30T11:22:29;21.00;99.90
53520;DHT22;39397;53.204;5.778;2023-07-30T11:24:58;20.90;99.90
53520;DHT22;39397;53.204;5.778;2023-07-30T11:27:24;20.70;99.90
53520;DHT22;39397;53.204;5.778;2023-07-30T11:29:56;20.80;99.90
53520;DHT22;39397;53.204;5.778;2023-07-30T11:32:22;20.90;99.90
53520;DHT22;39397;53.204;5.778;2023-07-30T11:34:53;21.10;99.90
53520;DHT22;39397;53.204;5.778;2023-07-30T11:37:20;21.20;99.90
53520;DHT22;39397;53.204;5.778;2023-07-30T11:39:45;21.40;99.90
53520;DHT22;39397;53.204;5.778;2023-07-30T11:42:11;21.20;99.90
53520;DHT22;39397;53.204;5.778;2023-07-30T11:44:38;21.20;99.90
53520;DHT22;39397;53.204;5.778;2023-07-30T11:47:04;21.40;99.90
53520;DHT22;39397;53.204;5.778;2023-07-30T11:49:30;21.30;99.90
53520;DHT22;39397;53.204;5.778;2023-07-30T11:52:08;21.10;99.90
53520;DHT22;39397;53.204;5.778;2023-07-30T11:54:34;21.10;99.90
53520;DHT22;39397;53.204;5.778;2023-07-30T11:56:59;21.00;99.90
53520;DHT22;39397;53.204;5.778;2023-07-30T11:59:25;20.90;99.90
53520;DHT22;39397;53.204;5.778;2023-07-30T12:01:51;21.00;99.90
53520;DHT22;39397;53.204;5.778;2023-07-30T12:04:16;20.80;99.90
53520;DHT22;39397;53.204;5.778;2023-07-30T12:06:49;20.60;99.90
53520;DHT22;39397;53.204;5.778;2023-07-30T12:11:47;20.50;99.90
53520;DHT22;39397;53.204;5.778;2023-07-30T12:14:13;20.70;99.90
53520;DHT22;39397;53.204;5.778;2023-07-30T12:16:38;20.70;99.90
53520;DHT22;39397;53.204;5.778;2023-07-30T12:19:04;20.30;99.90
53520;DHT22;39397;53.204;5.778;2023-07-30T12:21:30;20.40;99.90
53520;DHT22;39397;53.204;5.778;2023-07-30T12:23:55;20.60;99.90
53520;DHT22;39397;53.204;5.778;2023-07-30T12:26:21;20.60;99.90
53520;DHT22;39397;53.204;5.778;2023-07-30T12:28:46;20.60;99.90
53520;DHT22;39397;53.204;5.778;2023-07-30T12:31:12;20.50;99.90
53520;DHT22;39397;53.204;5.778;2023-07-30T12:33:37;20.40;99.90
53520;DHT22;39397;53.204;5.778;2023-07-30T12:36:03;20.60;99.90
53520;DHT22;39397;53.204;5.778;2023-07-30T12:38:29;20.70;99.90
53520;DHT22;39397;53.204;5.778;2023-07-30T12:40:54;20.60;99.90
53520;DHT22;39397;53.204;5.778;2023-07-30T12:43:20;20.60;99.90
53520;DHT22;39397;53.204;5.778;2023-07-30T12:45:46;20.70;99.90
53520;DHT22;39397;53.204;5.778;2023-07-30T12:48:12;20.90;99.90
53520;DHT22;39397;53.204;5.778;2023-07-30T12:50:37;21.10;99.90
53520;DHT22;39397;53.204;5.778;2023-07-30T12:53:03;21.50;99.90
53520;DHT22;39397;53.204;5.778;2023-07-30T12:55:29;21.10;99.90
53520;DHT22;39397;53.204;5.778;2023-07-30T12:57:55;21.30;99.90
53520;DHT22;39397;53.204;5.778;2023-07-30T13:00:20;21.20;99.90
53520;DHT22;39397;53.204;5.778;2023-07-30T13:02:46;21.30;99.90
53520;DHT22;39397;53.204;5.778;2023-07-30T13:05:11;21.30;99.90
53520;DHT22;39397;53.204;5.778;2023-07-30T13:07:39;21.30;99.90
53520;DHT22;39397;53.204;5.778;2023-07-30T13:10:05;21.30;99.90
53520;DHT22;39397;53.204;5.778;2023-07-30T13:12:31;21.30;99.90
53520;DHT22;39397;53.204;5.778;2023-07-30T13:14:57;21.20;99.90
53520;DHT22;39397;53.204;5.778;2023-07-30T13:17:22;21.00;99.90
53520;DHT22;39397;53.204;5.778;2023-07-30T13:19:48;20.80;99.90
53520;DHT22;39397;53.204;5.778;2023-07-30T13:22:14;20.80;99.90
53520;DHT22;39397;53.204;5.778;2023-07-30T13:24:39;20.80;99.90
53520;DHT22;39397;53.204;5.778;2023-07-30T13:27:05;20.90;99.90
53520;DHT22;39397;53.204;5.778;2023-07-30T13:29:30;21.20;99.90
53520;DHT22;39397;53.204;5.778;2023-07-30T13:31:56;21.20;99.90
53520;DHT22;39397;53.204;5.778;2023-07-30T13:34:22;21.30;99.90
53520;DHT22;39397;53.204;5.778;2023-07-30T13:36:47;21.50;99.90
53520;DHT22;39397;53.204;5.778;2023-07-30T13:39:13;21.50;99.90
53520;DHT22;39397;53.204;5.778;2023-07-30T13:41:39;21.70;99.90
53520;DHT22;39397;53.204;5.778;2023-07-30T13:44:04;21.60;99.90
53520;DHT22;39397;53.204;5.778;2023-07-30T13:46:30;21.80;99.90
53520;DHT22;39397;53.204;5.778;2023-07-30T13:48:55;21.80;99.90
53520;DHT22;39397;53.204;5.778;2023-07-30T13:51:21;21.90;99.90
53520;DHT22;39397;53.204;5.778;2023-07-30T13:53:47;21.70;99.90
53520;DHT22;39397;53.204;5.778;2023-07-30T13:56:12;21.70;99.90
53520;DHT22;39397;53.204;5.778;2023-07-30T13:58:38;21.70;99.90
53520;DHT22;39397;53.204;5.778;2023-07-30T14:01:05;21.40;99.90
53520;DHT22;39397;53.204;5.778;2023-07-30T14:03:31;21.70;99.90
53520;DHT22;39397;53.204;5.778;2023-07-30T14:05:57;21.60;99.90
53520;DHT22;39397;53.204;5.778;2023-07-30T14:08:23;21.60;99.90
53520;DHT22;39397;53.204;5.778;2023-07-30T14:10:48;21.60;99.90
53520;DHT22;39397;53.204;5.778;2023-07-30T14:13:14;21.30;99.90
53520;DHT22;39397;53.204;5.778;2023-07-30T14:15:39;21.10;99.90
53520;DHT22;39397;53.204;5.778;2023-07-30T14:18:05;21.10;99.90
53520;DHT22;39397;53.204;5.778;2023-07-30T14:20:30;21.20;99.90
53520;DHT22;39397;53.204;5.778;2023-07-30T14:22:57;21.30;99.90
53520;DHT22;39397;53.204;5.778;2023-07-30T14:25:23;21.30;99.90
53520;DHT22;39397;53.204;5.778;2023-07-30T14:27:50;21.30;99.90
53520;DHT22;39397;53.204;5.778;2023-07-30T14:30:15;21.10;99.90
53520;DHT22;39397;53.204;5.778;2023-07-30T14:32:41;20.80;99.90
53520;DHT22;39397;53.204;5.778;2023-07-30T14:35:07;21.00;99.90
53520;DHT22;39397;53.204;5.778;2023-07-30T14:37:32;19.90;99.90
53520;DHT22;39397;53.204;5.778;2023-07-30T14:39:58;19.60;99.90
53520;DHT22;39397;53.204;5.778;2023-07-30T14:42:23;19.30;99.90
53520;DHT22;39397;53.204;5.778;2023-07-30T14:44:49;19.10;99.90
53520;DHT22;39397;53.204;5.778;2023-07-30T14:47:14;19.10;99.90
53520;DHT22;39397;53.204;5.778;2023-07-30T14:49:40;19.00;99.90
53520;DHT22;39397;53.204;5.778;2023-07-30T14:52:06;18.80;99.90
53520;DHT22;39397;53.204;5.778;2023-07-30T14:54:31;18.70;99.90
53520;DHT22;39397;53.204;5.778;2023-07-30T14:56:57;18.70;99.90
53520;DHT22;39397;53.204;5.778;2023-07-30T14:59:23;18.60;99.90
53520;DHT22;39397;53.204;5.778;2023-07-30T15:01:48;18.40;99.90
53520;DHT22;39397;53.204;5.778;2023-07-30T15:04:14;18.30;99.90
53520;DHT22;39397;53.204;5.778;2023-07-30T15:06:39;18.00;99.90
53520;DHT22;39397;53.204;5.778;2023-07-30T15:09:05;17.80;99.90
53520;DHT22;39397;53.204;5.778;2023-07-30T15:11:31;17.70;99.90
53520;DHT22;39397;53.204;5.778;2023-07-30T15:13:56;17.70;99.90
53520;DHT22;39397;53.204;5.778;2023-07-30T15:16:22;17.70;99.90
53520;DHT22;39397;53.204;5.778;2023-07-30T15:18:47;17.80;99.90
53520;DHT22;39397;53.204;5.778;2023-07-30T15:21:13;17.80;99.90
53520;DHT22;39397;53.204;5.778;2023-07-30T15:23:39;18.00;99.90
53520;DHT22;39397;53.204;5.778;2023-07-30T15:26:04;18.00;99.90
53520;DHT22;39397;53.204;5.778;2023-07-30T15:28:30;18.30;99.90
53520;DHT22;39397;53.204;5.778;2023-07-30T15:30:55;18.50;99.90
53520;DHT22;39397;53.204;5.778;2023-07-30T15:33:22;18.70;99.90
53520;DHT22;39397;53.204;5.778;2023-07-30T15:35:48;18.80;99.90